Proud — 9HWA9 — position and weather

sailwx.info

Track history (hours):
 
Tides and Currents Weather Stations Pressure Air Temp Water Temp Dewpoint Dewpoint Depression Visibility Wind Speed Wind Dir Waves Ship Positions

Proud

Last reported at 2017-Oct-02 13:22 UTC. Time now 2017-Oct-17 09:59 UTC.
Position N 01°13' E 103°53'.
Warning: this ship's position is 14 days out of date.

Length 292 m; draft 17.4 m.

Type: Cargo ship. MMSI: 249619000.

Date/timePositionNaut miles runAvg speedWind from/ knotsBaromVisibWave heightAir tempDewpointWater temp
2017-Oct-02 13:22N 01°13' E 103°53'1 2.8
2017-Oct-02 13:00N 01°13' E 103°54'2 3.0
2017-Oct-02 12:30N 01°14' E 103°55'1 2.7
2017-Oct-02 12:00N 01°14' E 103°57'2 3.0
2017-Oct-02 11:30N 01°15' E 103°58'2 2.9
2017-Oct-02 10:58N 01°15' E 103°59'1 2.8
2017-Oct-02 10:30N 01°16' E 104°01'1 2.5
2017-Oct-02 09:58N 01°16' E 104°02'1 2.1
2017-Oct-02 09:29N 01°17' E 104°03'1 1.2
2017-Oct-02 09:00N 01°17' E 104°03'4210.0
2017-Oct-02 04:47N 01°18' E 103°21'411.9
2017-Oct-02 04:29N 01°16' E 103°24'511.3
2017-Oct-02 04:00N 01°14' E 103°29'510.5
2017-Oct-02 03:30N 01°12' E 103°33'510.2
2017-Oct-02 03:00N 01°11' E 103°39'510.1
2017-Oct-02 02:30N 01°09' E 103°43'510.6
2017-Oct-02 02:00N 01°11' E 103°48'611.3
2017-Oct-02 01:30N 01°13' E 103°53'610.7
2017-Oct-02 00:58N 01°15' E 103°59'5 8.9
2017-Oct-02 00:26N 01°17' E 104°03'1 0.9
2017-Oct-01 23:51N 01°17' E 104°03'0 0.1
2017-Oct-01 21:06N 01°17' E 104°03'0 0.0
2017-Oct-01 20:53N 01°17' E 104°03'0 0.0
2017-Oct-01 19:51N 01°17' E 104°03'0 0.0
2017-Oct-01 19:26N 01°17' E 104°03'2 1.9
2017-Oct-01 18:11N 01°17' E 104°05'2 7.4
2017-Oct-01 17:54N 01°17' E 104°03'0 0.0
2017-Oct-01 12:57N 01°17' E 104°03'0 0.1
2017-Oct-01 07:37N 01°17' E 104°03'0 1.5
2017-Oct-01 07:29N 01°17' E 104°03'  
Track history (hours):
 
Tides and Currents Weather Stations Pressure Air Temp Water Temp Dewpoint Dewpoint Depression Visibility Wind Speed Wind Dir Waves Ship Positions

Proud

Last reported at 2017-Oct-02 13:22 UTC. Time now 2017-Oct-17 09:59 UTC.
Position N 01°13' E 103°53'.
Warning: this ship's position is 14 days out of date.

Length 292 m; draft 17.4 m.

Type: Cargo ship. MMSI: 249619000.

Date/timePositionNaut miles runAvg speedWind from/ knotsBaromVisibWave heightAir tempDewpointWater temp
2017-Oct-02 13:22N 01°13' E 103°53'1 2.8
2017-Oct-02 13:00N 01°13' E 103°54'2 3.0
2017-Oct-02 12:30N 01°14' E 103°55'1 2.7
2017-Oct-02 12:00N 01°14' E 103°57'2 3.0
2017-Oct-02 11:30N 01°15' E 103°58'2 2.9
2017-Oct-02 10:58N 01°15' E 103°59'1 2.8
2017-Oct-02 10:30N 01°16' E 104°01'1 2.5
2017-Oct-02 09:58N 01°16' E 104°02'1 2.1
2017-Oct-02 09:29N 01°17' E 104°03'1 1.2
2017-Oct-02 09:00N 01°17' E 104°03'4210.0
2017-Oct-02 04:47N 01°18' E 103°21'411.9
2017-Oct-02 04:29N 01°16' E 103°24'511.3
2017-Oct-02 04:00N 01°14' E 103°29'510.5
2017-Oct-02 03:30N 01°12' E 103°33'510.2
2017-Oct-02 03:00N 01°11' E 103°39'510.1
2017-Oct-02 02:30N 01°09' E 103°43'510.6
2017-Oct-02 02:00N 01°11' E 103°48'611.3
2017-Oct-02 01:30N 01°13' E 103°53'610.7
2017-Oct-02 00:58N 01°15' E 103°59'5 8.9
2017-Oct-02 00:26N 01°17' E 104°03'1 0.9
2017-Oct-01 23:51N 01°17' E 104°03'0 0.1
2017-Oct-01 21:06N 01°17' E 104°03'0 0.0
2017-Oct-01 20:53N 01°17' E 104°03'0 0.0
2017-Oct-01 19:51N 01°17' E 104°03'0 0.0
2017-Oct-01 19:26N 01°17' E 104°03'2 1.9
2017-Oct-01 18:11N 01°17' E 104°05'2 7.4
2017-Oct-01 17:54N 01°17' E 104°03'0 0.0
2017-Oct-01 12:57N 01°17' E 104°03'0 0.1
2017-Oct-01 07:37N 01°17' E 104°03'0 1.5
2017-Oct-01 07:29N 01°17' E 104°03'  

Dump ship's entire track history